Alfonso Lopez Pumarejo Airport


Codes: SKVP/VUP
Name: Alfonso Lopez Pumarejo Airport
City: Valledupar
Country: Colombia
Elevation: 483 ft.
Wikipedia:

Photos at Alfonso Lopez Pumarejo Airport


   Photos courtesy of SpottingLog. You can add your own sightings and photos by signing up for a free trial today.



No photos found.

Weather at Alfonso Lopez Pumarejo Airport


Time (UTC)DescriptionTempratureWindCloud coverageVisibilityPressureHumidity
13-Jun-2024 03:00Scattered Clouds24°C0 mph, N40%10000m1012hPa100%
13-Jun-2024 06:00Broken Clouds24°C2 mph, N52%10000m1011hPa94%
13-Jun-2024 09:00Broken Clouds24°C2 mph, NE68%10000m1011hPa87%
13-Jun-2024 12:00Overcast Clouds26°C2 mph, NE88%10000m1011hPa78%
13-Jun-2024 15:00Overcast Clouds30°C0 mph, E100%10000m1011hPa67%
13-Jun-2024 18:00Light Rain32°C4 mph, SW100%10000m1008hPa63%
13-Jun-2024 21:00Light Rain31°C2 mph, S100%10000m1007hPa73%
14-Jun-2024 00:00Light Rain26°C2 mph, N100%10000m1009hPa86%
14-Jun-2024 03:00Light Rain25°C2 mph, NE100%10000m1011hPa91%
14-Jun-2024 06:00Light Rain24°C4 mph, NE100%10000m1010hPa94%
14-Jun-2024 09:00Light Rain23°C4 mph, NE100%10000m1010hPa93%
14-Jun-2024 12:00Overcast Clouds25°C2 mph, NE100%10000m1011hPa87%
14-Jun-2024 15:00Overcast Clouds27°C2 mph, E100%10000m1011hPa76%
14-Jun-2024 18:00Overcast Clouds30°C4 mph, SW100%10000m1008hPa66%
14-Jun-2024 21:00Light Rain28°C2 mph, S100%10000m1007hPa78%
15-Jun-2024 00:00Light Rain26°C0 mph, E100%10000m1009hPa86%
15-Jun-2024 03:00Light Rain25°C2 mph, NE100%10000m1010hPa88%
15-Jun-2024 06:00Light Rain23°C0 mph, NW100%5445m1010hPa91%
15-Jun-2024 09:00Light Rain22°C0 mph, NW100%10000m1011hPa88%
15-Jun-2024 12:00Overcast Clouds24°C0 mph, NE100%10000m1012hPa83%
15-Jun-2024 15:00Overcast Clouds27°C2 mph, S100%10000m1012hPa80%
15-Jun-2024 18:00Overcast Clouds29°C2 mph, S100%10000m1010hPa69%
15-Jun-2024 21:00Light Rain29°C2 mph, SW100%10000m1008hPa73%
16-Jun-2024 00:00Light Rain25°C2 mph, N100%10000m1010hPa90%
16-Jun-2024 03:00Light Rain24°C4 mph, NE96%10000m1011hPa94%
16-Jun-2024 06:00Light Rain23°C0 mph, NE94%10000m1010hPa93%
16-Jun-2024 09:00Light Rain23°C2 mph, S99%10000m1011hPa90%
16-Jun-2024 12:00Light Rain24°C0 mph, NE100%10000m1012hPa89%
16-Jun-2024 15:00Overcast Clouds28°C4 mph, S95%10000m1012hPa75%
16-Jun-2024 18:00Light Rain29°C4 mph, S98%10000m1010hPa72%
16-Jun-2024 21:00Moderate Rain27°C2 mph, NE100%5186m1009hPa86%
17-Jun-2024 00:00Moderate Rain24°C2 mph, SW100%10000m1011hPa98%
17-Jun-2024 03:00Moderate Rain24°C2 mph, E100%10000m1013hPa97%
17-Jun-2024 06:00Light Rain23°C2 mph, NE100%10000m1012hPa97%
17-Jun-2024 09:00Light Rain23°C2 mph, NE100%10000m1011hPa95%
17-Jun-2024 12:00Light Rain23°C2 mph, NE100%10000m1012hPa95%
17-Jun-2024 15:00Light Rain26°C2 mph, NE100%10000m1013hPa86%
17-Jun-2024 18:00Light Rain24°C0 mph, W100%10000m1011hPa92%
17-Jun-2024 21:00Overcast Clouds26°C2 mph, SW100%10000m1009hPa83%
18-Jun-2024 00:00Light Rain24°C2 mph, SW100%10000m1010hPa95%